Aviation WX

[Source: ADDS]
METAR
KFKL 201956Z AUTO VRB06G15KT 10SM CLR 08/M05 A3038 RMK AO2 SLP301 T00781050 =
TAF
KFKL 201853Z 2019/2118 35010G20KT P6SM SKC FM210000 32005KT P6SM SKC =